createdAt,value
2018-12-26T00:02:04.577Z,-1.40
2018-12-26T00:04:34.584Z,-1.40
2018-12-26T00:07:04.553Z,-1.50
2018-12-26T00:09:34.661Z,-1.40
2018-12-26T00:12:04.668Z,-1.50
2018-12-26T00:14:34.440Z,-1.40
2018-12-26T00:17:04.548Z,-1.40
2018-12-26T00:19:34.436Z,-1.40
2018-12-26T00:22:04.457Z,-1.40
2018-12-26T00:24:34.234Z,-1.40
2018-12-26T00:27:03.977Z,-1.30
2018-12-26T00:29:33.760Z,-1.30
2018-12-26T00:32:03.755Z,-1.30
2018-12-26T00:34:33.630Z,-1.40
2018-12-26T00:37:03.536Z,-1.40
2018-12-26T00:39:33.305Z,-1.50
2018-12-26T00:42:03.057Z,-1.50
2018-12-26T00:44:32.853Z,-1.50
2018-12-26T00:47:02.765Z,-1.50
2018-12-26T00:49:32.563Z,-1.40
2018-12-26T00:52:02.345Z,-1.40
2018-12-26T00:54:32.108Z,-1.40
2018-12-26T00:57:02.000Z,-1.50
2018-12-26T00:59:32.844Z,-1.50
2018-12-26T01:02:02.680Z,-1.60
2018-12-26T01:04:32.475Z,-1.60
2018-12-26T01:07:02.357Z,-1.60
2018-12-26T01:09:32.592Z,-1.70
2018-12-26T01:12:02.392Z,-1.70
2018-12-26T01:14:32.148Z,-1.60
2018-12-26T01:17:01.957Z,-1.60
2018-12-26T01:19:31.809Z,-1.50
2018-12-26T01:22:01.576Z,-1.50
2018-12-26T01:24:31.345Z,-1.50
2018-12-26T01:27:01.133Z,-1.40
2018-12-26T01:29:30.907Z,-1.30
2018-12-26T01:32:00.828Z,-1.20
2018-12-26T01:34:30.602Z,-1.10
2018-12-26T01:37:19.557Z,-1.10
2018-12-26T01:39:49.409Z,-1.00
2018-12-26T01:42:19.180Z,-0.90
2018-12-26T01:44:49.016Z,-0.90
2018-12-26T01:47:18.790Z,-0.80
2018-12-26T01:49:48.805Z,-0.80
2018-12-26T01:52:18.635Z,-0.80
2018-12-26T01:54:48.461Z,-0.70
2018-12-26T01:57:19.520Z,-0.80
2018-12-26T01:59:49.680Z,-0.80
2018-12-26T02:02:19.552Z,-0.80
2018-12-26T02:04:49.469Z,-0.80
2018-12-26T02:07:19.223Z,-0.80
2018-12-26T02:09:49.064Z,-0.80
2018-12-26T02:12:18.837Z,-0.80
2018-12-26T02:14:48.693Z,-0.90
2018-12-26T02:17:18.531Z,-0.90
2018-12-26T02:19:48.364Z,-0.80
2018-12-26T02:22:18.852Z,-0.90
2018-12-26T02:24:48.687Z,-0.90
2018-12-26T02:27:18.477Z,-1.00
2018-12-26T02:29:48.313Z,-1.00
2018-12-26T02:32:18.152Z,-1.00
2018-12-26T02:34:47.936Z,-1.00
2018-12-26T02:37:17.853Z,-1.00
2018-12-26T02:39:47.622Z,-1.10
2018-12-26T02:42:17.413Z,-1.10
2018-12-26T02:44:47.482Z,-1.10
2018-12-26T02:47:17.325Z,-1.20
2018-12-26T02:49:47.110Z,-1.20
2018-12-26T02:52:17.001Z,-1.20
2018-12-26T02:54:48.919Z,-1.20
2018-12-26T02:57:18.700Z,-1.20
2018-12-26T02:59:49.737Z,-1.30
2018-12-26T03:02:19.591Z,-1.30
2018-12-26T03:04:49.433Z,-1.20
2018-12-26T03:07:20.481Z,-1.20
2018-12-26T03:09:50.257Z,-1.20
2018-12-26T03:12:20.409Z,-1.20
2018-12-26T03:14:50.465Z,-1.20
2018-12-26T03:17:20.367Z,-1.20
2018-12-26T03:19:50.213Z,-1.20
2018-12-26T03:22:19.974Z,-1.20
2018-12-26T03:24:50.220Z,-1.20
2018-12-26T03:27:20.177Z,-1.20
2018-12-26T03:29:50.334Z,-1.20
2018-12-26T03:32:20.170Z,-1.20
2018-12-26T03:34:50.038Z,-1.30
2018-12-26T03:37:20.305Z,-1.30
2018-12-26T03:39:50.141Z,-1.30
2018-12-26T03:42:19.980Z,-1.30
2018-12-26T03:44:51.588Z,-1.30
2018-12-26T03:47:21.683Z,-1.30
2018-12-26T03:49:51.520Z,-1.30
2018-12-26T03:52:21.679Z,-1.40
2018-12-26T03:54:51.986Z,-1.60
2018-12-26T03:57:33.496Z,-1.60
2018-12-26T04:00:03.441Z,-1.80
2018-12-26T04:02:33.625Z,-1.80
2018-12-26T04:05:03.546Z,-1.70
2018-12-26T04:07:33.387Z,-1.70
2018-12-26T04:10:03.307Z,-1.50
2018-12-26T04:12:34.178Z,-1.40
2018-12-26T04:15:04.192Z,-1.40
2018-12-26T04:17:34.409Z,-1.40
2018-12-26T04:20:04.548Z,-1.40
2018-12-26T04:22:34.548Z,-1.40
2018-12-26T04:25:04.610Z,-1.50
2018-12-26T04:27:34.419Z,-1.60
2018-12-26T04:30:06.448Z,-1.60
2018-12-26T04:32:36.320Z,-1.60
2018-12-26T04:35:06.272Z,-1.60
2018-12-26T04:37:36.101Z,-1.70
2018-12-26T04:40:06.165Z,-1.70
2018-12-26T04:42:36.347Z,-1.60
2018-12-26T04:45:06.454Z,-1.50
2018-12-26T04:47:36.218Z,-1.30
2018-12-26T04:50:06.158Z,-1.30
2018-12-26T04:52:35.930Z,-1.20
2018-12-26T04:55:06.130Z,-1.20
2018-12-26T04:57:35.905Z,-1.20
2018-12-26T05:00:06.763Z,-1.20
2018-12-26T05:02:36.716Z,-1.20
2018-12-26T05:05:06.637Z,-1.20
2018-12-26T05:07:36.521Z,-1.20
2018-12-26T05:10:06.955Z,-1.20
2018-12-26T05:12:36.789Z,-1.20
2018-12-26T05:15:06.710Z,-1.20
2018-12-26T05:17:36.577Z,-1.20
2018-12-26T05:20:06.633Z,-1.20
2018-12-26T05:22:36.555Z,-1.30
2018-12-26T05:25:06.903Z,-1.30
2018-12-26T05:27:37.101Z,-1.30
2018-12-26T05:30:07.670Z,-1.30
2018-12-26T05:32:37.533Z,-1.30
2018-12-26T05:35:07.449Z,-1.30
2018-12-26T05:37:37.385Z,-1.30
2018-12-26T05:40:07.406Z,-1.20
2018-12-26T05:42:37.524Z,-1.30
2018-12-26T05:45:07.696Z,-1.30
2018-12-26T05:47:37.484Z,-1.20
2018-12-26T05:50:07.349Z,-1.20
2018-12-26T05:52:48.909Z,-1.20
2018-12-26T05:55:18.669Z,-1.10
2018-12-26T05:57:49.188Z,-1.00
2018-12-26T06:00:19.036Z,-1.10
2018-12-26T06:02:48.915Z,-1.10
2018-12-26T06:05:18.757Z,-1.10
2018-12-26T06:07:48.857Z,-1.10
2018-12-26T06:10:18.629Z,-1.00
2018-12-26T06:12:48.677Z,-1.00
2018-12-26T06:15:18.517Z,-1.00
2018-12-26T06:17:48.317Z,-1.10
2018-12-26T06:20:18.097Z,-1.10
2018-12-26T06:22:47.942Z,-1.10
2018-12-26T06:25:17.768Z,-1.10
2018-12-26T06:27:51.430Z,-1.10
2018-12-26T06:30:19.016Z,-1.10
2018-12-26T06:32:48.800Z,-1.20
2018-12-26T06:35:19.029Z,-1.10
2018-12-26T06:37:49.149Z,-1.00
2018-12-26T06:40:18.929Z,-1.00
2018-12-26T06:42:48.706Z,-0.90
2018-12-26T06:45:18.465Z,-1.00
2018-12-26T06:47:48.258Z,-1.10
2018-12-26T06:50:18.581Z,-1.20
2018-12-26T06:52:48.361Z,-1.30
2018-12-26T06:55:18.456Z,-1.40
2018-12-26T06:57:48.241Z,-1.50
2018-12-26T07:00:18.507Z,-1.50
2018-12-26T07:02:48.694Z,-1.40
2018-12-26T07:05:18.529Z,-1.40
2018-12-26T07:07:48.605Z,-1.50
2018-12-26T07:10:18.372Z,-1.70
2018-12-26T07:12:48.280Z,-1.60
2018-12-26T07:15:18.401Z,-1.50
2018-12-26T07:17:48.613Z,-1.60
2018-12-26T07:20:18.509Z,-1.60
2018-12-26T07:22:49.634Z,-1.70
2018-12-26T07:25:19.514Z,-1.80
2018-12-26T07:27:52.429Z,-1.80
2018-12-26T07:30:22.286Z,-1.70
2018-12-26T07:32:52.228Z,-1.50
2018-12-26T07:35:22.197Z,-1.50
2018-12-26T07:38:04.042Z,-1.60
2018-12-26T07:40:33.909Z,-1.70
2018-12-26T07:43:03.769Z,-1.70
2018-12-26T07:45:34.064Z,-1.60
2018-12-26T07:48:03.865Z,-1.50
2018-12-26T07:50:33.715Z,-1.30
2018-12-26T07:53:03.592Z,-1.30
2018-12-26T07:55:33.363Z,-1.30
2018-12-26T07:58:03.205Z,-1.30
2018-12-26T08:00:32.989Z,-1.20
2018-12-26T08:03:02.791Z,-1.10
2018-12-26T08:05:32.859Z,-1.10
2018-12-26T08:08:02.745Z,-0.70
2018-12-26T08:10:32.522Z,-0.30
2018-12-26T08:13:03.485Z,0.30
2018-12-26T08:15:33.425Z,0.90
2018-12-26T08:18:03.266Z,1.30
2018-12-26T08:20:33.137Z,1.50
2018-12-26T08:23:04.148Z,1.30
2018-12-26T08:25:34.383Z,0.70
2018-12-26T08:28:05.813Z,0.40
2018-12-26T08:30:35.952Z,0.40
2018-12-26T08:33:05.841Z,0.90
2018-12-26T08:35:35.633Z,1.70
2018-12-26T08:38:05.454Z,2.50
2018-12-26T08:40:35.289Z,2.80
2018-12-26T08:43:05.056Z,2.90
2018-12-26T08:45:34.904Z,2.70
2018-12-26T08:48:04.786Z,2.60
2018-12-26T08:50:34.581Z,2.90
2018-12-26T08:53:04.987Z,2.40
2018-12-26T08:55:34.817Z,2.50
2018-12-26T08:58:04.676Z,3.00
2018-12-26T09:00:34.522Z,3.60
2018-12-26T09:03:04.357Z,3.30
2018-12-26T09:05:34.196Z,4.10
2018-12-26T09:08:04.017Z,4.20
2018-12-26T09:10:34.253Z,3.50
2018-12-26T09:13:15.765Z,3.30
2018-12-26T09:15:45.547Z,3.80
2018-12-26T09:18:15.401Z,4.80
2018-12-26T09:20:45.229Z,5.30
2018-12-26T09:23:14.993Z,6.90
2018-12-26T09:25:47.917Z,6.50
2018-12-26T09:28:17.760Z,7.70
2018-12-26T09:30:47.539Z,8.70
2018-12-26T09:33:17.641Z,8.00
2018-12-26T09:35:47.429Z,8.60
2018-12-26T09:38:17.334Z,7.20
2018-12-26T09:40:47.185Z,5.90
2018-12-26T09:43:17.013Z,5.00
2018-12-26T09:45:46.858Z,3.40
2018-12-26T09:48:16.608Z,1.90
2018-12-26T09:50:46.454Z,1.50
2018-12-26T09:53:16.281Z,1.10
2018-12-26T09:55:46.585Z,0.90
2018-12-26T09:58:16.349Z,0.80
2018-12-26T10:00:46.203Z,0.50
2018-12-26T10:03:16.309Z,0.50
2018-12-26T10:05:46.561Z,0.40
2018-12-26T10:08:16.313Z,0.10
2018-12-26T10:10:46.162Z,0.10
2018-12-26T10:13:15.996Z,0.30
2018-12-26T10:15:45.769Z,0.20
2018-12-26T10:18:15.625Z,0.10
2018-12-26T10:20:45.488Z,-0.10
2018-12-26T10:23:15.255Z,0.00
2018-12-26T10:25:45.100Z,-0.10
2018-12-26T10:28:14.861Z,-0.10
2018-12-26T10:30:44.963Z,-0.20
2018-12-26T10:33:14.729Z,-0.20
2018-12-26T10:35:44.586Z,-0.30
2018-12-26T10:38:14.365Z,-0.40
2018-12-26T10:40:44.178Z,-0.30
2018-12-26T10:43:14.390Z,-0.30
2018-12-26T10:45:45.697Z,-0.30
2018-12-26T10:48:15.583Z,-0.50
2018-12-26T10:50:45.489Z,-0.50
2018-12-26T10:53:15.286Z,-0.50
2018-12-26T10:55:45.153Z,-0.40
2018-12-26T10:58:15.233Z,-0.50
2018-12-26T11:00:45.089Z,-0.60
2018-12-26T11:03:14.981Z,-0.40
2018-12-26T11:05:44.897Z,-0.50
2018-12-26T11:08:26.813Z,-0.60
2018-12-26T11:10:57.018Z,-0.60
2018-12-26T11:13:26.797Z,-0.60
2018-12-26T11:15:56.741Z,-0.60
2018-12-26T11:18:26.721Z,-0.50
2018-12-26T11:20:57.149Z,-0.30
2018-12-26T11:23:27.015Z,-0.40
2018-12-26T11:25:56.933Z,-0.50
2018-12-26T11:28:26.796Z,-0.40
2018-12-26T11:30:56.576Z,-0.40
2018-12-26T11:33:26.435Z,-0.40
2018-12-26T11:35:56.261Z,-0.30
2018-12-26T11:38:26.124Z,-0.20
2018-12-26T11:40:57.055Z,-0.30
2018-12-26T11:43:28.377Z,-0.30
2018-12-26T11:45:58.319Z,-0.20
2018-12-26T11:48:28.336Z,-0.20
2018-12-26T11:50:58.221Z,-0.20
2018-12-26T11:53:29.369Z,-0.30
2018-12-26T11:55:59.139Z,-0.40
2018-12-26T11:58:29.077Z,-0.30
2018-12-26T12:00:58.940Z,-0.40
2018-12-26T12:03:28.931Z,-0.20
2018-12-26T12:05:58.769Z,-0.20
2018-12-26T12:08:28.718Z,-0.10
2018-12-26T12:10:58.904Z,0.10
2018-12-26T12:13:28.979Z,0.10
2018-12-26T12:15:58.913Z,0.00
2018-12-26T12:18:29.309Z,-0.10
2018-12-26T12:21:18.352Z,-0.10
2018-12-26T12:23:48.165Z,-0.30
2018-12-26T12:26:18.056Z,-0.30
2018-12-26T12:28:47.913Z,-0.30
2018-12-26T12:31:17.757Z,-0.30
2018-12-26T12:33:47.946Z,-0.40
2018-12-26T12:36:18.170Z,-0.20
2018-12-26T12:38:48.097Z,0.00
2018-12-26T12:41:18.015Z,-0.10
2018-12-26T12:43:47.887Z,-0.20
2018-12-26T12:46:17.740Z,-0.20
2018-12-26T12:48:47.679Z,-0.10
2018-12-26T12:51:17.450Z,-0.20
2018-12-26T12:53:47.573Z,-0.40
2018-12-26T12:56:17.507Z,-0.30
2018-12-26T12:59:01.376Z,-0.30
2018-12-26T13:01:31.293Z,-0.20
2018-12-26T13:04:01.167Z,-0.20
2018-12-26T13:06:31.013Z,-0.20
2018-12-26T13:09:00.966Z,-0.20
2018-12-26T13:11:30.557Z,-0.30
2018-12-26T13:14:00.913Z,-0.20
2018-12-26T13:16:30.872Z,-0.20
2018-12-26T13:19:00.887Z,-0.20
2018-12-26T13:24:12.962Z,0.00
2018-12-26T13:26:43.191Z,0.10
2018-12-26T13:29:13.630Z,-0.10
2018-12-26T13:31:43.464Z,-0.10
2018-12-26T13:34:13.408Z,-0.20
2018-12-26T13:36:43.624Z,-0.20
2018-12-26T13:39:14.078Z,-0.30
2018-12-26T13:41:43.921Z,-0.20
2018-12-26T13:44:14.277Z,-0.20
2018-12-26T13:46:44.136Z,-0.10
2018-12-26T13:49:14.713Z,-0.20
2018-12-26T13:51:45.242Z,-0.30
2018-12-26T13:54:15.122Z,-0.30
2018-12-26T13:56:46.917Z,-0.20
2018-12-26T13:59:16.910Z,-0.30
2018-12-26T14:01:47.046Z,-0.40
2018-12-26T14:04:17.062Z,-0.50
2018-12-26T14:06:48.468Z,-0.60
2018-12-26T14:09:24.728Z,-0.60
2018-12-26T14:11:57.821Z,-0.60
2018-12-26T14:14:28.041Z,-0.60
2018-12-26T14:16:58.526Z,-0.60
2018-12-26T14:19:28.870Z,-0.80
2018-12-26T14:21:58.833Z,-0.80
2018-12-26T14:24:28.975Z,-0.90
2018-12-26T14:27:02.587Z,-0.90
2018-12-26T14:29:50.887Z,-0.80
2018-12-26T14:32:33.297Z,-0.70
2018-12-26T14:35:12.635Z,-0.80
2018-12-26T14:37:51.704Z,-0.80
2018-12-26T14:40:31.265Z,-0.80
2018-12-26T14:43:07.402Z,-0.80
2018-12-26T14:45:42.526Z,-0.80
2018-12-26T14:48:15.806Z,-0.80
2018-12-26T14:50:51.101Z,-0.80
2018-12-26T14:53:28.530Z,-0.90
2018-12-26T14:56:04.339Z,-0.90
2018-12-26T14:58:42.660Z,-1.00
2018-12-26T15:01:24.236Z,-1.10
2018-12-26T15:04:05.393Z,-1.00
2018-12-26T15:06:47.721Z,-1.10
2018-12-26T15:09:29.206Z,-1.00
2018-12-26T15:12:06.904Z,-1.00
2018-12-26T15:14:39.421Z,-1.00
2018-12-26T15:17:09.445Z,-0.90
2018-12-26T15:19:41.425Z,-0.30
2018-12-26T15:22:11.666Z,0.00
2018-12-26T15:24:42.069Z,-0.50
2018-12-26T15:27:19.645Z,-0.80
2018-12-26T15:29:49.473Z,-1.10
2018-12-26T15:32:22.677Z,-1.10
2018-12-26T15:34:53.576Z,-1.30
2018-12-26T15:37:25.164Z,-1.40
2018-12-26T15:39:55.658Z,-1.40
2018-12-26T15:42:26.501Z,-1.60
2018-12-26T15:44:57.722Z,-1.80
2018-12-26T15:47:28.756Z,-2.00
2018-12-26T15:49:59.550Z,-2.20
2018-12-26T15:52:30.406Z,-2.30
2018-12-26T15:55:02.414Z,-2.30
2018-12-26T15:57:32.864Z,-2.20
2018-12-26T16:00:05.287Z,-2.10
2018-12-26T16:02:36.409Z,-2.00
2018-12-26T16:05:09.254Z,-1.70
2018-12-26T16:07:39.967Z,-1.50
2018-12-26T16:10:11.256Z,-1.40
2018-12-26T16:12:41.617Z,-1.40
2018-12-26T16:15:12.246Z,-1.50
2018-12-26T16:17:42.518Z,-1.40
2018-12-26T16:20:12.780Z,-1.40
2018-12-26T16:22:43.041Z,-1.50
2018-12-26T16:25:13.546Z,-1.50
2018-12-26T16:27:43.816Z,-1.60
2018-12-26T16:30:14.898Z,-1.60
2018-12-26T16:32:45.271Z,-1.60
2018-12-26T16:35:16.054Z,-1.60
2018-12-26T16:37:46.525Z,-1.50
2018-12-26T16:40:21.863Z,-1.50
2018-12-26T16:42:52.799Z,-1.60
2018-12-26T16:45:23.152Z,-1.50
2018-12-26T16:47:53.419Z,-1.50
2018-12-26T16:50:27.154Z,-1.60
2018-12-26T16:52:55.692Z,-1.60
2018-12-26T16:55:25.885Z,-1.60
2018-12-26T16:57:56.364Z,-1.70
2018-12-26T17:00:26.637Z,-1.70
2018-12-26T17:02:56.961Z,-1.80
2018-12-26T17:05:27.377Z,-1.70
2018-12-26T17:07:58.075Z,-1.60
2018-12-26T17:10:28.391Z,-1.40
2018-12-26T17:12:58.717Z,-1.60
2018-12-26T17:15:29.451Z,-1.50
2018-12-26T17:17:59.922Z,-1.60
2018-12-26T17:20:30.227Z,-1.60
2018-12-26T17:23:00.770Z,-1.60
2018-12-26T17:25:31.310Z,-1.50
2018-12-26T17:28:01.662Z,-1.40
2018-12-26T17:30:31.978Z,-1.40
2018-12-26T17:33:02.364Z,-1.60
2018-12-26T17:35:32.676Z,-1.60
2018-12-26T17:38:03.054Z,-1.70
2018-12-26T17:40:33.358Z,-1.80
2018-12-26T17:43:04.190Z,-1.90
2018-12-26T17:45:34.937Z,-1.80
2018-12-26T17:48:05.552Z,-1.80
2018-12-26T17:50:47.493Z,-1.80
2018-12-26T17:53:36.834Z,-1.90
2018-12-26T17:56:38.085Z,-2.00
2018-12-26T17:59:35.569Z,-2.00
2018-12-26T18:02:14.274Z,-2.00
2018-12-26T18:04:44.832Z,-1.90
2018-12-26T18:07:15.292Z,-2.00
2018-12-26T18:09:45.963Z,-1.80
2018-12-26T18:12:16.467Z,-1.70
2018-12-26T18:14:47.051Z,-1.70
2018-12-26T18:17:18.629Z,-1.80
2018-12-26T18:19:49.873Z,-1.80
2018-12-26T18:22:20.611Z,-1.90
2018-12-26T18:24:50.985Z,-2.00
2018-12-26T18:27:21.668Z,-2.00
2018-12-26T18:29:52.319Z,-2.10
2018-12-26T18:32:22.752Z,-2.10
2018-12-26T18:34:53.060Z,-2.10
2018-12-26T18:37:23.369Z,-2.10
2018-12-26T18:39:53.656Z,-2.00
2018-12-26T18:42:24.023Z,-2.10
2018-12-26T18:44:54.455Z,-2.10
2018-12-26T18:47:24.870Z,-2.10
2018-12-26T18:49:56.041Z,-2.10
2018-12-26T18:52:26.299Z,-2.10
2018-12-26T18:54:57.033Z,-2.20
2018-12-26T18:57:27.326Z,-2.20
2018-12-26T18:59:57.708Z,-2.30
2018-12-26T19:02:28.400Z,-2.30
2018-12-26T19:04:58.906Z,-2.30
2018-12-26T19:07:29.299Z,-2.30
2018-12-26T19:09:59.829Z,-2.30
2018-12-26T19:12:30.241Z,-2.30
2018-12-26T19:15:02.148Z,-2.40
2018-12-26T19:17:32.663Z,-2.30
2018-12-26T19:20:03.062Z,-2.30
2018-12-26T19:22:33.562Z,-2.40
2018-12-26T19:25:04.476Z,-2.40
2018-12-26T19:27:35.346Z,-2.40
2018-12-26T19:30:07.651Z,-2.40
2018-12-26T19:32:38.448Z,-2.40
2018-12-26T19:35:12.924Z,-2.40
2018-12-26T19:37:44.077Z,-2.40
2018-12-26T19:40:14.814Z,-2.40
2018-12-26T19:42:45.778Z,-2.30
2018-12-26T19:45:16.742Z,-2.30
2018-12-26T19:47:46.985Z,-2.30
2018-12-26T19:50:17.440Z,-2.30
2018-12-26T19:52:47.721Z,-2.20
2018-12-26T19:55:19.013Z,-2.20
2018-12-26T19:57:49.313Z,-2.20
2018-12-26T20:00:19.689Z,-2.30
2018-12-26T20:02:49.882Z,-2.30
2018-12-26T20:05:20.270Z,-2.30
2018-12-26T20:07:50.887Z,-2.30
2018-12-26T20:10:21.259Z,-2.30
2018-12-26T20:12:51.545Z,-2.30
2018-12-26T20:15:21.934Z,-2.30
2018-12-26T20:17:52.501Z,-2.20
2018-12-26T20:20:23.233Z,-2.30
2018-12-26T20:22:53.934Z,-2.30
2018-12-26T20:25:24.230Z,-2.30
2018-12-26T20:27:54.478Z,-2.40
2018-12-26T20:30:24.780Z,-2.30
2018-12-26T20:32:55.026Z,-2.40
2018-12-26T20:35:25.339Z,-2.50
2018-12-26T20:37:56.270Z,-2.50
2018-12-26T20:40:26.391Z,-2.50
2018-12-26T20:42:56.889Z,-2.40
2018-12-26T20:45:28.302Z,-2.50
2018-12-26T20:48:05.829Z,-2.50
2018-12-26T20:50:36.487Z,-2.50
2018-12-26T20:53:07.474Z,-2.60
2018-12-26T20:55:38.561Z,-2.50
2018-12-26T20:58:10.281Z,-2.50
2018-12-26T21:00:40.934Z,-2.50
2018-12-26T21:03:12.287Z,-2.50
2018-12-26T21:05:42.884Z,-2.50
2018-12-26T21:08:13.704Z,-2.50
2018-12-26T21:10:53.754Z,-2.50
2018-12-26T21:13:25.066Z,-2.50
2018-12-26T21:15:55.920Z,-2.60
2018-12-26T21:18:27.120Z,-2.70
2018-12-26T21:20:58.160Z,-2.80
2018-12-26T21:23:29.186Z,-2.80
2018-12-26T21:26:00.007Z,-2.80
2018-12-26T21:28:30.909Z,-2.80
2018-12-26T21:31:01.922Z,-2.70
2018-12-26T21:33:33.288Z,-2.70
2018-12-26T21:36:04.270Z,-2.70
2018-12-26T21:38:35.534Z,-2.70
2018-12-26T21:41:07.058Z,-2.70
2018-12-26T21:43:38.540Z,-2.70
2018-12-26T21:46:09.192Z,-2.70
2018-12-26T21:48:40.437Z,-2.70
2018-12-26T21:51:11.002Z,-2.70
2018-12-26T21:53:41.952Z,-2.80
2018-12-26T21:56:12.908Z,-2.80
2018-12-26T21:58:43.500Z,-2.80
2018-12-26T22:01:14.163Z,-2.80
2018-12-26T22:03:44.743Z,-2.80
2018-12-26T22:06:15.444Z,-2.90
2018-12-26T22:08:46.081Z,-2.90
2018-12-26T22:11:16.996Z,-3.00
2018-12-26T22:13:47.570Z,-3.10
2018-12-26T22:16:19.179Z,-3.10
2018-12-26T22:18:49.799Z,-3.10
2018-12-26T22:21:20.877Z,-3.10
2018-12-26T22:23:51.413Z,-3.10
2018-12-26T22:26:21.860Z,-3.10
2018-12-26T22:28:52.362Z,-3.10
2018-12-26T22:31:22.875Z,-3.10
2018-12-26T22:33:53.400Z,-3.10
2018-12-26T22:36:23.933Z,-3.10
2018-12-26T22:38:54.461Z,-3.00
2018-12-26T22:41:24.918Z,-3.00
2018-12-26T22:43:55.368Z,-3.00
2018-12-26T22:46:25.860Z,-2.90
2018-12-26T22:48:56.408Z,-3.00
2018-12-26T22:51:27.365Z,-3.00
2018-12-26T22:53:57.852Z,-2.90
2018-12-26T22:56:28.338Z,-3.00
2018-12-26T22:58:59.241Z,-2.90
2018-12-26T23:01:29.740Z,-2.90
2018-12-26T23:04:01.324Z,-2.90
2018-12-26T23:06:31.934Z,-2.90
2018-12-26T23:09:02.456Z,-2.90
2018-12-26T23:11:33.059Z,-2.90
2018-12-26T23:14:03.638Z,-2.90
2018-12-26T23:16:34.460Z,-2.90
2018-12-26T23:19:06.548Z,-2.90
2018-12-26T23:21:37.076Z,-2.90
2018-12-26T23:24:07.640Z,-2.90
2018-12-26T23:26:38.187Z,-2.90
2018-12-26T23:29:08.730Z,-2.80
2018-12-26T23:31:40.346Z,-2.80
2018-12-26T23:34:11.555Z,-2.70
2018-12-26T23:36:42.091Z,-2.80
2018-12-26T23:39:12.994Z,-2.90
2018-12-26T23:41:43.542Z,-2.80
2018-12-26T23:44:14.058Z,-2.80
2018-12-26T23:46:44.545Z,-2.80
2018-12-26T23:49:14.973Z,-2.90
2018-12-26T23:51:45.450Z,-2.80
2018-12-26T23:54:16.271Z,-2.90
2018-12-26T23:56:46.736Z,-2.90
2018-12-26T23:59:17.263Z,-2.80
